La Pointe, Wisconsin
Current Conditions -  °F | °C
As of 9:53 PM on Friday 24 Oct 2014 (Local Time) from KASX Reporting Station
Clear Clear  
Wind Chill: 57°   Ceiling: Unl
Heat Index: 57°   Visibility: 10mi
Dew Point: 53°   Wind: 12mph
Humidity: 87%   Direction: 230°SW
Pressure: 29.76"   Gusts: 21mph
Location:  46.78°N, 90.79°W
Report Text: KASX 250253Z AUTO 23010G18KT 10SM CLR 14/12 A2976 RMK AO2 SLP082 T01390117 58006
Loading
Personal Weather Stations






























Interactive Weather Map
Tropical Storm Tracking
New forecast layout! Learn more

10-Day Weather Forecast

Advertisements
Track Severe Weather on mobile